createdAt,value
2023-03-24T00:01:05.674Z,10.79
2023-03-24T00:03:07.481Z,10.81
2023-03-24T00:05:15.727Z,10.78
2023-03-24T00:07:17.183Z,10.79
2023-03-24T00:09:18.602Z,10.75
2023-03-24T00:11:21.245Z,10.75
2023-03-24T00:13:22.947Z,10.77
2023-03-24T00:15:25.512Z,10.77
2023-03-24T00:17:29.245Z,10.72
2023-03-24T00:19:30.756Z,10.76
2023-03-24T00:21:32.526Z,10.77
2023-03-24T00:23:34.507Z,10.77
2023-03-24T00:25:40.160Z,10.78
2023-03-24T00:27:41.870Z,10.78
2023-03-24T00:29:43.635Z,10.78
2023-03-24T00:31:45.897Z,10.78
2023-03-24T00:33:51.006Z,10.74
2023-03-24T00:35:52.650Z,10.80
2023-03-24T00:37:54.510Z,10.78
2023-03-24T00:39:55.922Z,10.80
2023-03-24T00:41:58.777Z,10.81
2023-03-24T00:44:03.682Z,10.79
2023-03-24T00:46:10.980Z,10.80
2023-03-24T00:48:20.428Z,10.77
2023-03-24T00:50:26.366Z,10.77
2023-03-24T00:52:33.879Z,10.78
2023-03-24T00:54:36.447Z,10.77
2023-03-24T00:56:40.518Z,10.75
2023-03-24T00:58:42.339Z,10.78
2023-03-24T01:00:45.836Z,10.82
2023-03-24T01:02:53.769Z,10.82
2023-03-24T01:04:57.402Z,10.84
2023-03-24T01:06:58.923Z,10.88
2023-03-24T01:09:02.802Z,10.91
2023-03-24T01:11:05.820Z,10.94
2023-03-24T01:13:07.334Z,10.93
2023-03-24T01:15:14.849Z,10.92
2023-03-24T01:17:16.312Z,10.92
2023-03-24T01:19:18.979Z,10.91
2023-03-24T01:21:20.384Z,10.92
2023-03-24T01:23:25.756Z,10.90
2023-03-24T01:25:28.048Z,10.94
2023-03-24T01:27:29.488Z,10.97
2023-03-24T01:29:31.105Z,10.95
2023-03-24T01:31:32.643Z,10.96
2023-03-24T01:33:34.478Z,10.94
2023-03-24T01:35:36.325Z,10.90
2023-03-24T01:37:38.497Z,10.94
2023-03-24T01:39:40.031Z,10.93
2023-03-24T01:41:42.530Z,10.98
2023-03-24T01:43:44.119Z,11.00
2023-03-24T01:45:57.905Z,11.00
2023-03-24T01:47:59.688Z,10.99
2023-03-24T01:50:02.979Z,10.96
2023-03-24T01:52:11.239Z,10.97
2023-03-24T01:54:27.492Z,11.01
2023-03-24T01:56:33.467Z,10.98
2023-03-24T01:58:37.759Z,10.97
2023-03-24T02:00:39.565Z,10.98
2023-03-24T02:02:54.712Z,11.01
2023-03-24T02:05:02.963Z,11.00
2023-03-24T02:07:13.816Z,10.97
2023-03-24T02:09:15.500Z,10.99
2023-03-24T02:11:17.118Z,10.99
2023-03-24T02:13:18.576Z,11.01
2023-03-24T02:15:20.549Z,10.99
2023-03-24T02:17:37.270Z,11.00
2023-03-24T02:19:53.522Z,11.01
2023-03-24T02:22:15.868Z,11.04
2023-03-24T02:24:50.166Z,11.07
2023-03-24T02:27:13.400Z,11.09
2023-03-24T02:29:56.591Z,11.15
2023-03-24T02:32:24.262Z,11.16
2023-03-24T02:35:02.644Z,11.18
2023-03-24T02:37:27.534Z,11.16
2023-03-24T02:39:41.655Z,11.16
2023-03-24T02:41:49.207Z,11.16
2023-03-24T02:44:07.081Z,11.20
2023-03-24T02:46:31.468Z,11.16
2023-03-24T02:49:05.966Z,11.14
2023-03-24T02:51:42.557Z,11.17
2023-03-24T02:54:21.238Z,11.15
2023-03-24T02:56:34.904Z,11.13
2023-03-24T02:58:42.084Z,11.15
2023-03-24T03:00:53.804Z,11.18
2023-03-24T03:03:18.548Z,11.16
2023-03-24T03:05:30.067Z,11.22
2023-03-24T03:07:33.500Z,11.20
2023-03-24T03:09:39.850Z,11.17
2023-03-24T03:11:46.812Z,11.20
2023-03-24T03:13:59.381Z,11.21
2023-03-24T03:16:09.765Z,11.19
2023-03-24T03:18:25.466Z,11.21
2023-03-24T03:20:34.701Z,11.21
2023-03-24T03:22:49.602Z,11.23
2023-03-24T03:24:55.510Z,11.20
2023-03-24T03:27:02.249Z,11.23
2023-03-24T03:29:16.666Z,11.24
2023-03-24T03:31:29.669Z,11.25
2023-03-24T03:33:38.627Z,11.28
2023-03-24T03:35:47.236Z,11.28
2023-03-24T03:38:06.173Z,11.32
2023-03-24T03:40:13.150Z,11.33
2023-03-24T03:42:14.744Z,11.35
2023-03-24T03:44:16.223Z,11.35
2023-03-24T03:46:18.449Z,11.34
2023-03-24T03:48:20.406Z,11.39
2023-03-24T03:50:22.169Z,11.41
2023-03-24T03:52:23.702Z,11.55
2023-03-24T03:54:29.789Z,11.51
2023-03-24T03:56:33.395Z,11.57
2023-03-24T03:58:35.281Z,11.60
2023-03-24T04:00:37.463Z,11.62
2023-03-24T04:02:57.624Z,11.64
2023-03-24T04:05:08.390Z,11.63
2023-03-24T04:07:24.640Z,11.66
2023-03-24T04:09:31.711Z,11.65
2023-03-24T04:11:35.976Z,11.62
2023-03-24T04:13:45.085Z,11.64
2023-03-24T04:16:18.034Z,11.65
2023-03-24T04:18:34.969Z,11.65
2023-03-24T04:20:58.328Z,11.64
2023-03-24T04:23:09.706Z,11.68
2023-03-24T04:25:29.196Z,11.67
2023-03-24T04:27:46.280Z,11.66
2023-03-24T04:30:10.988Z,11.65
2023-03-24T04:32:21.075Z,11.63
2023-03-24T04:34:30.724Z,11.65
2023-03-24T04:36:54.317Z,11.64
2023-03-24T04:38:57.251Z,11.62
2023-03-24T04:40:59.842Z,11.60
2023-03-24T04:43:04.273Z,11.60
2023-03-24T04:45:07.741Z,11.63
2023-03-24T04:47:12.233Z,11.62
2023-03-24T04:49:13.631Z,11.62
2023-03-24T04:51:17.506Z,11.64
2023-03-24T04:53:19.142Z,11.62
2023-03-24T04:55:32.262Z,11.61
2023-03-24T04:57:33.547Z,11.62
2023-03-24T04:59:35.009Z,11.60
2023-03-24T05:01:37.529Z,11.59
2023-03-24T05:03:39.067Z,11.58
2023-03-24T05:05:41.859Z,11.60
2023-03-24T05:07:43.933Z,11.62
2023-03-24T05:09:45.546Z,11.61
2023-03-24T05:11:47.623Z,11.60
2023-03-24T05:13:48.983Z,11.58
2023-03-24T05:15:53.173Z,11.60
2023-03-24T05:17:54.779Z,11.56
2023-03-24T05:19:56.200Z,11.53
2023-03-24T05:21:57.637Z,11.49
2023-03-24T05:23:59.203Z,11.47
2023-03-24T05:26:01.363Z,11.46
2023-03-24T05:28:02.886Z,11.49
2023-03-24T05:30:06.433Z,11.48
2023-03-24T05:32:07.858Z,11.45
2023-03-24T05:34:09.694Z,11.41
2023-03-24T05:36:11.592Z,11.49
2023-03-24T05:38:13.289Z,11.40
2023-03-24T05:40:15.766Z,11.41
2023-03-24T05:42:17.355Z,11.36
2023-03-24T05:44:18.761Z,11.32
2023-03-24T05:46:20.246Z,11.28
2023-03-24T05:48:22.393Z,11.29
2023-03-24T05:50:24.340Z,11.21
2023-03-24T05:52:28.254Z,11.14
2023-03-24T05:54:31.032Z,11.12
2023-03-24T05:56:32.782Z,11.19
2023-03-24T05:58:35.277Z,11.19
2023-03-24T06:00:36.678Z,11.22
2023-03-24T06:02:39.761Z,11.12
2023-03-24T06:04:46.231Z,11.12
2023-03-24T06:06:48.098Z,11.09
2023-03-24T06:08:50.185Z,11.07
2023-03-24T06:10:53.402Z,11.02
2023-03-24T06:12:56.025Z,10.98
2023-03-24T06:14:57.715Z,10.97
2023-03-24T06:16:59.540Z,10.95
2023-03-24T06:19:00.969Z,11.00
2023-03-24T06:21:02.382Z,10.97
2023-03-24T06:23:03.826Z,10.96
2023-03-24T06:25:05.818Z,10.94
2023-03-24T06:27:08.765Z,10.99
2023-03-24T06:29:11.206Z,10.88
2023-03-24T06:31:14.893Z,10.79
2023-03-24T06:33:16.704Z,10.73
2023-03-24T06:35:18.137Z,10.67
2023-03-24T06:37:23.392Z,10.66
2023-03-24T06:39:25.070Z,10.63
2023-03-24T06:41:26.432Z,10.52
2023-03-24T06:43:27.967Z,10.51
2023-03-24T06:45:31.153Z,10.41
2023-03-24T06:47:32.745Z,10.33
2023-03-24T06:49:34.821Z,10.36
2023-03-24T06:51:36.244Z,10.42
2023-03-24T06:53:38.724Z,10.62
2023-03-24T06:55:40.841Z,10.61
2023-03-24T06:57:42.248Z,10.60
2023-03-24T06:59:43.636Z,10.67
2023-03-24T07:01:45.073Z,10.75
2023-03-24T07:03:46.641Z,10.73
2023-03-24T07:05:48.049Z,10.67
2023-03-24T07:09:54.960Z,10.49
2023-03-24T07:11:56.540Z,10.47
2023-03-24T07:13:57.944Z,10.46
2023-03-24T07:15:59.395Z,10.48
2023-03-24T07:18:01.493Z,10.50
2023-03-24T07:20:07.892Z,10.52
2023-03-24T07:22:09.768Z,10.52
2023-03-24T07:24:11.163Z,10.52
2023-03-24T07:26:12.616Z,10.47
2023-03-24T07:28:14.168Z,10.41
2023-03-24T07:30:15.754Z,10.30
2023-03-24T07:32:17.791Z,10.27
2023-03-24T07:34:19.259Z,10.19
2023-03-24T07:36:20.891Z,10.20
2023-03-24T07:38:22.328Z,10.20
2023-03-24T07:40:23.799Z,10.18
2023-03-24T07:42:26.089Z,10.19
2023-03-24T07:44:27.488Z,10.23
2023-03-24T07:46:28.953Z,10.26
2023-03-24T07:48:30.943Z,10.22
2023-03-24T07:50:32.928Z,10.16
2023-03-24T07:52:34.309Z,10.17
2023-03-24T07:54:35.862Z,10.23
2023-03-24T07:56:37.285Z,10.28
2023-03-24T07:58:38.714Z,10.29
2023-03-24T08:00:40.318Z,10.28
2023-03-24T08:02:42.856Z,10.33
2023-03-24T08:04:44.892Z,10.35
2023-03-24T08:06:46.528Z,10.40
2023-03-24T08:08:47.962Z,10.49
2023-03-24T08:10:50.883Z,10.52
2023-03-24T08:12:52.793Z,10.52
2023-03-24T08:14:54.235Z,10.55
2023-03-24T08:16:56.056Z,10.49
2023-03-24T08:18:58.291Z,10.42
2023-03-24T08:21:01.534Z,10.49
2023-03-24T08:23:04.791Z,10.56
2023-03-24T08:25:07.872Z,10.61
2023-03-24T08:27:10.472Z,10.70
2023-03-24T08:29:11.961Z,10.71
2023-03-24T08:31:13.389Z,10.79
2023-03-24T08:33:16.811Z,10.77
2023-03-24T08:35:22.175Z,10.85
2023-03-24T08:37:23.629Z,10.91
2023-03-24T08:39:25.034Z,10.86
2023-03-24T08:41:30.658Z,10.92
2023-03-24T08:43:33.810Z,11.07
2023-03-24T08:45:36.346Z,11.17
2023-03-24T08:47:38.092Z,11.31
2023-03-24T08:49:39.534Z,11.47
2023-03-24T08:51:41.105Z,11.80
2023-03-24T08:53:43.416Z,11.90
2023-03-24T08:55:45.414Z,11.98
2023-03-24T08:57:48.139Z,11.89
2023-03-24T08:59:51.321Z,11.74
2023-03-24T09:01:53.117Z,11.56
2023-03-24T09:03:54.501Z,11.65
2023-03-24T09:05:57.325Z,11.79
2023-03-24T09:08:00.583Z,11.88
2023-03-24T09:10:05.319Z,11.98
2023-03-24T09:12:07.043Z,12.01
2023-03-24T09:14:08.509Z,12.09
2023-03-24T09:16:10.119Z,12.11
2023-03-24T09:18:11.582Z,12.14
2023-03-24T09:20:15.731Z,12.24
2023-03-24T09:22:17.262Z,12.34
2023-03-24T09:24:18.646Z,12.28
2023-03-24T09:26:20.039Z,12.32
2023-03-24T09:28:22.121Z,12.42
2023-03-24T09:30:23.594Z,12.34
2023-03-24T09:32:25.251Z,12.25
2023-03-24T09:34:26.750Z,12.34
2023-03-24T09:36:30.677Z,12.26
2023-03-24T09:38:34.896Z,12.20
2023-03-24T09:40:38.713Z,12.37
2023-03-24T09:42:41.502Z,12.78
2023-03-24T09:44:50.641Z,12.70
2023-03-24T09:47:06.420Z,12.96
2023-03-24T09:49:13.776Z,13.00
2023-03-24T09:51:19.579Z,12.84
2023-03-24T09:53:49.645Z,12.93
2023-03-24T09:55:51.370Z,13.10
2023-03-24T09:57:55.559Z,13.26
2023-03-24T09:59:57.351Z,13.05
2023-03-24T10:01:58.839Z,13.22
2023-03-24T10:04:00.553Z,13.07
2023-03-24T10:06:09.093Z,13.40
2023-03-24T10:08:32.304Z,13.52
2023-03-24T10:10:55.335Z,13.48
2023-03-24T10:13:08.003Z,13.23
2023-03-24T10:15:09.855Z,13.69
2023-03-24T10:17:41.917Z,13.34
2023-03-24T10:20:18.242Z,13.40
2023-03-24T10:22:29.487Z,13.64
2023-03-24T10:24:39.617Z,13.65
2023-03-24T10:27:06.411Z,13.73
2023-03-24T10:29:28.901Z,14.11
2023-03-24T10:31:36.286Z,14.25
2023-03-24T10:33:42.806Z,14.01
2023-03-24T10:36:09.363Z,13.84
2023-03-24T10:38:20.191Z,14.07
2023-03-24T10:40:27.075Z,14.10
2023-03-24T10:42:35.467Z,14.09
2023-03-24T10:44:37.285Z,13.96
2023-03-24T10:46:48.237Z,14.07
2023-03-24T10:48:52.810Z,13.83
2023-03-24T10:50:58.689Z,13.67
2023-03-24T10:53:00.108Z,13.69
2023-03-24T10:55:07.680Z,13.65
2023-03-24T10:57:18.720Z,13.79
2023-03-24T10:59:38.756Z,13.59
2023-03-24T11:01:41.337Z,13.68
2023-03-24T11:03:42.917Z,13.76
2023-03-24T11:05:45.158Z,13.94
2023-03-24T11:07:49.468Z,14.35
2023-03-24T11:10:06.096Z,14.54
2023-03-24T11:12:31.369Z,14.62
2023-03-24T11:14:32.881Z,14.98
2023-03-24T11:16:43.087Z,14.81
2023-03-24T11:18:57.855Z,15.03
2023-03-24T11:21:05.021Z,15.18
2023-03-24T11:23:15.364Z,15.11
2023-03-24T11:25:17.485Z,14.96
2023-03-24T11:27:19.630Z,15.25
2023-03-24T11:29:25.599Z,15.35
2023-03-24T11:31:30.616Z,15.64
2023-03-24T11:33:36.761Z,15.24
2023-03-24T11:35:42.112Z,15.23
2023-03-24T11:37:46.253Z,15.12
2023-03-24T11:43:20.141Z,15.62
2023-03-24T11:45:36.346Z,15.25
2023-03-24T11:47:38.715Z,15.57
2023-03-24T11:49:46.478Z,15.34
2023-03-24T11:51:52.912Z,15.51
2023-03-24T11:53:56.450Z,15.77
2023-03-24T11:56:17.321Z,15.71
2023-03-24T11:58:47.325Z,15.85
2023-03-24T12:00:59.784Z,15.62
2023-03-24T12:03:10.406Z,15.37
2023-03-24T12:05:30.220Z,15.29
2023-03-24T12:07:48.820Z,15.41
2023-03-24T12:10:14.688Z,15.75
2023-03-24T12:12:51.796Z,15.37
2023-03-24T12:15:24.596Z,14.89
2023-03-24T12:17:40.959Z,14.78
2023-03-24T12:19:54.356Z,14.73
2023-03-24T12:22:04.372Z,14.76
2023-03-24T12:24:33.640Z,14.90
2023-03-24T12:26:35.560Z,14.52
2023-03-24T12:28:45.774Z,14.53
2023-03-24T12:31:20.724Z,14.71
2023-03-24T12:33:38.404Z,14.58
2023-03-24T12:35:43.059Z,14.88
2023-03-24T12:37:54.582Z,14.88
2023-03-24T12:39:58.993Z,14.81
2023-03-24T12:42:12.810Z,15.09
2023-03-24T12:44:14.262Z,15.31
2023-03-24T12:46:25.233Z,15.16
2023-03-24T12:49:12.006Z,15.58
2023-03-24T12:51:26.426Z,15.71
2023-03-24T12:53:41.569Z,15.41
2023-03-24T12:55:52.108Z,15.26
2023-03-24T12:58:16.898Z,15.18
2023-03-24T13:00:27.705Z,15.44
2023-03-24T13:02:50.583Z,15.65
2023-03-24T13:04:55.912Z,15.92
2023-03-24T13:07:01.524Z,15.85
2023-03-24T13:09:11.775Z,15.94
2023-03-24T13:11:30.096Z,15.79
2023-03-24T13:13:43.908Z,15.58
2023-03-24T13:15:48.044Z,16.02
2023-03-24T13:18:10.929Z,15.46
2023-03-24T13:20:17.128Z,15.25
2023-03-24T13:22:21.285Z,15.05
2023-03-24T13:24:25.655Z,15.09
2023-03-24T13:26:36.258Z,15.32
2023-03-24T13:29:03.621Z,15.24
2023-03-24T13:31:09.161Z,15.16
2023-03-24T13:33:22.014Z,15.24
2023-03-24T13:35:35.536Z,14.95
2023-03-24T13:38:05.824Z,14.85
2023-03-24T13:40:11.773Z,14.52
2023-03-24T13:42:58.326Z,14.37
2023-03-24T13:45:03.160Z,14.65
2023-03-24T13:47:14.682Z,14.88
2023-03-24T13:49:16.447Z,14.96
2023-03-24T13:51:22.593Z,15.17
2023-03-24T13:53:44.913Z,15.52
2023-03-24T13:55:52.679Z,15.56
2023-03-24T13:58:00.386Z,15.94
2023-03-24T14:00:12.085Z,16.22
2023-03-24T14:02:30.980Z,15.89
2023-03-24T14:04:48.849Z,16.10
2023-03-24T14:06:54.955Z,16.00
2023-03-24T14:09:05.539Z,16.38
2023-03-24T14:11:41.345Z,16.31
2023-03-24T14:13:47.226Z,15.99
2023-03-24T14:15:56.450Z,16.20
2023-03-24T14:18:22.740Z,16.25
2023-03-24T14:20:32.118Z,16.05
2023-03-24T14:22:36.178Z,15.97
2023-03-24T14:24:38.936Z,16.00
2023-03-24T14:26:40.970Z,16.19
2023-03-24T14:28:44.624Z,15.91
2023-03-24T14:31:16.991Z,16.22
2023-03-24T14:33:26.388Z,16.64
2023-03-24T14:35:33.428Z,16.71
2023-03-24T14:37:34.959Z,17.00
2023-03-24T14:39:49.817Z,16.59
2023-03-24T14:41:52.618Z,16.25
2023-03-24T14:43:59.386Z,15.87
2023-03-24T14:46:21.047Z,15.58
2023-03-24T14:48:28.406Z,15.32
2023-03-24T14:50:30.075Z,15.14
2023-03-24T14:52:31.940Z,14.58
2023-03-24T14:54:44.107Z,14.23
2023-03-24T14:56:51.707Z,14.00
2023-03-24T14:58:58.305Z,14.19
2023-03-24T15:01:07.602Z,14.50
2023-03-24T15:03:45.804Z,14.71
2023-03-24T15:05:47.378Z,14.82
2023-03-24T15:08:20.785Z,15.04
2023-03-24T15:10:22.154Z,15.17
2023-03-24T15:12:24.471Z,15.57
2023-03-24T15:14:26.456Z,15.55
2023-03-24T15:16:30.722Z,15.75
2023-03-24T15:18:32.750Z,16.75
2023-03-24T15:20:37.355Z,16.02
2023-03-24T15:22:42.477Z,15.25
2023-03-24T15:24:48.233Z,14.94
2023-03-24T15:27:09.127Z,14.70
2023-03-24T15:29:11.326Z,14.09
2023-03-24T15:31:13.792Z,14.02
2023-03-24T15:33:15.325Z,13.80
2023-03-24T15:35:20.334Z,13.81
2023-03-24T15:37:32.575Z,14.01
2023-03-24T15:39:36.917Z,13.76
2023-03-24T15:41:38.395Z,13.50
2023-03-24T15:43:49.687Z,13.22
2023-03-24T15:46:08.633Z,13.56
2023-03-24T15:48:18.795Z,13.65
2023-03-24T15:50:38.107Z,13.81
2023-03-24T15:52:39.493Z,18.14
2023-03-24T15:54:41.445Z,22.04
2023-03-24T15:56:42.849Z,22.71
2023-03-24T15:58:45.781Z,19.86
2023-03-24T16:00:48.727Z,17.11
2023-03-24T16:02:56.197Z,16.20
2023-03-24T16:05:10.933Z,15.35
2023-03-24T16:07:29.457Z,15.00
2023-03-24T16:09:40.677Z,14.49
2023-03-24T16:11:42.574Z,14.16
2023-03-24T16:13:45.600Z,13.97
2023-03-24T16:16:13.365Z,13.70
2023-03-24T16:18:23.110Z,13.47
2023-03-24T16:20:24.611Z,13.34
2023-03-24T16:22:26.487Z,13.20
2023-03-24T16:24:27.905Z,13.14
2023-03-24T16:26:33.307Z,12.95
2023-03-24T16:28:34.732Z,12.76
2023-03-24T16:30:40.643Z,12.71
2023-03-24T16:32:42.090Z,12.61
2023-03-24T16:34:44.018Z,12.39
2023-03-24T16:36:47.275Z,12.10
2023-03-24T16:38:52.151Z,11.89
2023-03-24T16:40:56.026Z,11.63
2023-03-24T16:42:59.290Z,11.32
2023-03-24T16:45:01.130Z,10.61
2023-03-24T16:47:02.605Z,10.52
2023-03-24T16:49:06.882Z,10.69
2023-03-24T16:51:15.957Z,10.84
2023-03-24T16:53:18.172Z,10.93
2023-03-24T16:55:19.795Z,10.85
2023-03-24T16:57:21.211Z,10.76
2023-03-24T16:59:22.584Z,10.78
2023-03-24T17:01:33.855Z,10.65
2023-03-24T17:03:35.519Z,10.70
2023-03-24T17:05:48.770Z,10.65
2023-03-24T17:07:50.388Z,10.63
2023-03-24T17:09:51.852Z,10.58
2023-03-24T17:11:56.887Z,10.59
2023-03-24T17:14:05.585Z,10.67
2023-03-24T17:16:09.794Z,10.92
2023-03-24T17:18:11.244Z,10.89
2023-03-24T17:20:13.506Z,10.80
2023-03-24T17:22:17.365Z,10.85
2023-03-24T17:24:19.618Z,10.86
2023-03-24T17:26:24.290Z,10.85
2023-03-24T17:28:25.832Z,10.97
2023-03-24T17:30:28.654Z,10.80
2023-03-24T17:32:32.150Z,10.67
2023-03-24T17:34:33.943Z,10.58
2023-03-24T17:36:36.423Z,10.40
2023-03-24T17:38:38.015Z,10.27
2023-03-24T17:40:39.641Z,10.17
2023-03-24T17:42:44.574Z,10.04
2023-03-24T17:44:47.961Z,9.92
2023-03-24T17:46:49.580Z,9.85
2023-03-24T17:48:51.041Z,9.82
2023-03-24T17:50:53.208Z,9.71
2023-03-24T17:52:54.601Z,9.56
2023-03-24T17:54:56.148Z,9.48
2023-03-24T17:56:57.569Z,9.43
2023-03-24T17:58:59.089Z,9.38
2023-03-24T18:01:08.503Z,9.27
2023-03-24T18:03:10.201Z,9.21
2023-03-24T18:05:12.665Z,9.15
2023-03-24T18:07:14.347Z,9.07
2023-03-24T18:09:17.074Z,9.04
2023-03-24T18:11:18.556Z,8.97
2023-03-24T18:13:20.214Z,8.91
2023-03-24T18:15:21.684Z,8.92
2023-03-24T18:17:23.554Z,8.86
2023-03-24T18:19:25.248Z,8.83
2023-03-24T18:21:26.741Z,8.80
2023-03-24T18:23:29.623Z,8.77
2023-03-24T18:25:32.040Z,8.71
2023-03-24T18:27:33.666Z,8.70
2023-03-24T18:29:38.596Z,8.68
2023-03-24T18:31:40.039Z,8.62
2023-03-24T18:33:46.190Z,8.60
2023-03-24T18:35:54.051Z,8.55
2023-03-24T18:37:55.732Z,8.52
2023-03-24T18:39:57.096Z,8.52
2023-03-24T18:41:58.504Z,8.53
2023-03-24T18:43:59.968Z,8.51
2023-03-24T18:46:01.440Z,8.51
2023-03-24T18:48:02.992Z,8.45
2023-03-24T18:50:04.844Z,8.42
2023-03-24T18:52:08.303Z,8.37
2023-03-24T18:54:12.143Z,8.36
2023-03-24T18:56:14.512Z,8.31
2023-03-24T18:58:17.422Z,8.26
2023-03-24T19:00:20.198Z,8.24
2023-03-24T19:02:21.645Z,8.26
2023-03-24T19:04:23.025Z,8.28
2023-03-24T19:06:30.803Z,8.28
2023-03-24T19:08:44.502Z,8.28
2023-03-24T19:10:45.935Z,8.24
2023-03-24T19:12:47.381Z,8.24
2023-03-24T19:14:49.399Z,8.21
2023-03-24T19:16:50.940Z,8.21
2023-03-24T19:18:52.567Z,8.22
2023-03-24T19:20:56.081Z,8.20
2023-03-24T19:22:57.465Z,8.27
2023-03-24T19:24:58.851Z,8.25
2023-03-24T19:27:00.365Z,8.34
2023-03-24T19:29:02.006Z,8.36
2023-03-24T19:31:08.874Z,8.42
2023-03-24T19:33:11.298Z,8.46
2023-03-24T19:35:13.351Z,8.46
2023-03-24T19:37:14.789Z,8.48
2023-03-24T19:39:17.970Z,8.51
2023-03-24T19:41:19.307Z,8.51
2023-03-24T19:43:21.990Z,8.52
2023-03-24T19:45:23.424Z,8.56
2023-03-24T19:47:24.823Z,8.58
2023-03-24T19:49:26.324Z,8.62
2023-03-24T19:51:27.718Z,8.70
2023-03-24T19:53:29.248Z,8.73
2023-03-24T19:55:31.452Z,8.72
2023-03-24T19:57:33.600Z,8.68
2023-03-24T19:59:34.976Z,8.71
2023-03-24T20:01:37.906Z,8.69
2023-03-24T20:03:39.995Z,8.69
2023-03-24T20:05:41.629Z,8.75
2023-03-24T20:07:43.025Z,8.81
2023-03-24T20:09:44.410Z,8.82
2023-03-24T20:11:46.004Z,8.88
2023-03-24T20:13:47.413Z,8.92
2023-03-24T20:15:49.141Z,8.92
2023-03-24T20:17:51.387Z,8.96
2023-03-24T20:19:54.227Z,8.97
2023-03-24T20:21:55.866Z,9.02
2023-03-24T20:23:57.258Z,9.05
2023-03-24T20:25:59.985Z,9.06
2023-03-24T20:28:01.517Z,9.09
2023-03-24T20:30:04.698Z,9.09
2023-03-24T20:32:08.130Z,9.09
2023-03-24T20:34:11.140Z,9.06
2023-03-24T20:36:12.639Z,9.07
2023-03-24T20:38:14.064Z,9.10
2023-03-24T20:40:15.599Z,9.11
2023-03-24T20:42:18.071Z,9.09
2023-03-24T20:44:19.500Z,9.06
2023-03-24T20:46:20.932Z,9.04
2023-03-24T20:48:22.974Z,9.08
2023-03-24T20:50:24.730Z,9.11
2023-03-24T20:52:27.109Z,9.09
2023-03-24T20:54:28.530Z,9.06
2023-03-24T20:56:30.137Z,9.12
2023-03-24T20:58:32.451Z,9.12
2023-03-24T21:00:37.950Z,9.12
2023-03-24T21:02:42.732Z,9.09
2023-03-24T21:04:44.585Z,9.10
2023-03-24T21:06:46.118Z,9.12
2023-03-24T21:08:47.778Z,9.13
2023-03-24T21:10:49.195Z,9.07
2023-03-24T21:12:53.078Z,9.08
2023-03-24T21:14:55.999Z,9.08
2023-03-24T21:16:57.672Z,9.09
2023-03-24T21:21:28.268Z,9.10
2023-03-24T21:23:34.509Z,9.09
2023-03-24T21:25:37.430Z,9.09
2023-03-24T21:27:38.930Z,9.08
2023-03-24T21:29:40.382Z,9.06
2023-03-24T21:31:41.835Z,9.03
2023-03-24T21:33:44.476Z,9.04
2023-03-24T21:35:46.019Z,9.04
2023-03-24T21:37:47.982Z,9.00
2023-03-24T21:39:49.355Z,9.00
2023-03-24T21:41:52.283Z,9.12
2023-03-24T21:43:54.242Z,9.03
2023-03-24T21:45:57.099Z,9.00
2023-03-24T21:47:59.707Z,9.00
2023-03-24T21:50:02.817Z,9.03
2023-03-24T21:52:05.321Z,8.96
2023-03-24T21:54:08.768Z,8.89
2023-03-24T21:56:10.396Z,8.89
2023-03-24T21:58:11.820Z,8.90
2023-03-24T22:00:17.801Z,8.87
2023-03-24T22:02:19.218Z,8.80
2023-03-24T22:04:20.766Z,8.86
2023-03-24T22:06:22.784Z,8.82
2023-03-24T22:08:26.599Z,8.78
2023-03-24T22:10:29.707Z,8.77
2023-03-24T22:12:32.062Z,8.69
2023-03-24T22:14:33.473Z,8.68
2023-03-24T22:16:34.968Z,8.65
2023-03-24T22:18:36.466Z,8.60
2023-03-24T22:20:37.848Z,8.62
2023-03-24T22:22:40.888Z,8.64
2023-03-24T22:24:42.374Z,8.56
2023-03-24T22:26:43.773Z,8.54
2023-03-24T22:28:45.245Z,8.52
2023-03-24T22:30:46.771Z,8.48
2023-03-24T22:32:48.432Z,8.53
2023-03-24T22:34:49.857Z,8.55
2023-03-24T22:36:51.221Z,8.55
2023-03-24T22:38:52.692Z,8.59
2023-03-24T22:41:03.644Z,8.64
2023-03-24T22:43:05.375Z,8.67
2023-03-24T22:45:07.826Z,8.69
2023-03-24T22:47:09.243Z,8.73
2023-03-24T22:49:10.721Z,8.76
2023-03-24T22:51:16.811Z,8.76
2023-03-24T22:53:18.330Z,8.78
2023-03-24T22:55:19.697Z,8.79
2023-03-24T22:57:21.135Z,8.73
2023-03-24T22:59:24.052Z,8.72
2023-03-24T23:01:25.415Z,8.72
2023-03-24T23:03:26.797Z,8.72
2023-03-24T23:05:28.214Z,8.73
2023-03-24T23:07:29.728Z,8.74
2023-03-24T23:09:31.188Z,8.74
2023-03-24T23:11:32.687Z,8.70
2023-03-24T23:13:35.671Z,8.72
2023-03-24T23:15:38.307Z,8.75
2023-03-24T23:17:42.601Z,8.77
2023-03-24T23:19:44.097Z,8.76
2023-03-24T23:21:45.475Z,8.74
2023-03-24T23:23:47.190Z,8.76
2023-03-24T23:25:51.713Z,8.69
2023-03-24T23:27:53.295Z,8.68
2023-03-24T23:29:54.719Z,8.65
2023-03-24T23:31:56.246Z,8.68
2023-03-24T23:33:58.285Z,8.59
2023-03-24T23:35:59.726Z,8.58
2023-03-24T23:38:02.433Z,8.56
2023-03-24T23:40:12.767Z,8.50
2023-03-24T23:42:14.499Z,8.51
2023-03-24T23:44:19.519Z,8.52
2023-03-24T23:46:21.934Z,8.53
2023-03-24T23:48:30.544Z,8.48
2023-03-24T23:50:32.660Z,8.41
2023-03-24T23:52:34.972Z,8.40
2023-03-24T23:54:36.371Z,8.40
2023-03-24T23:56:38.551Z,8.38
2023-03-24T23:58:42.516Z,8.37
